createdAt,value
2023-05-17T00:00:13.065Z,85.5855
2023-05-17T00:05:16.326Z,85.5396
2023-05-17T00:07:17.335Z,85.5184
2023-05-17T00:14:20.766Z,85.4184
2023-05-17T00:15:21.436Z,85.3908
2023-05-17T00:16:22.069Z,85.3781
2023-05-17T00:17:23.123Z,85.3692
2023-05-17T00:20:26.030Z,85.3346
2023-05-17T00:21:26.104Z,85.3244
2023-05-17T00:22:27.358Z,85.3128
2023-05-17T00:23:28.474Z,85.3105
2023-05-17T00:24:29.169Z,85.3171
2023-05-17T00:25:30.700Z,85.3231
2023-05-17T00:26:31.589Z,85.3220
2023-05-17T00:27:31.742Z,85.3172
2023-05-17T00:29:34.484Z,85.2544
2023-05-17T00:31:35.263Z,85.1762
2023-05-17T00:32:36.206Z,85.1534
2023-05-17T00:33:36.552Z,85.1288
2023-05-17T00:34:37.243Z,85.1156
2023-05-17T00:35:37.490Z,85.1018
2023-05-17T00:37:38.516Z,85.0756
2023-05-17T00:40:40.307Z,85.0040
2023-05-17T00:41:41.553Z,84.9947
2023-05-17T00:42:42.285Z,84.9926
2023-05-17T00:43:42.941Z,84.9957
2023-05-17T00:44:44.093Z,84.9884
2023-05-17T00:45:45.000Z,84.9355
2023-05-17T00:46:46.855Z,84.9018
2023-05-17T00:47:47.496Z,84.8971
2023-05-17T00:48:47.782Z,84.8874
2023-05-17T00:49:48.407Z,84.8640
2023-05-17T01:00:57.453Z,84.9274
2023-05-17T01:01:58.550Z,84.9465
2023-05-17T01:02:59.837Z,84.9670
2023-05-17T01:04:01.589Z,84.9833
2023-05-17T01:09:05.247Z,84.9696
2023-05-17T01:10:05.744Z,84.9385
2023-05-17T01:11:06.414Z,84.8905
2023-05-17T01:12:06.403Z,84.8657
2023-05-17T01:14:06.621Z,84.8820
2023-05-17T01:15:06.910Z,84.8887
2023-05-17T01:16:08.138Z,84.8990
2023-05-17T01:17:08.663Z,84.9125
2023-05-17T01:18:09.664Z,84.9234
2023-05-17T01:19:11.216Z,84.9483
2023-05-17T01:20:12.345Z,84.9545
2023-05-17T01:21:13.442Z,84.9495
2023-05-17T01:22:14.072Z,84.9288
2023-05-17T01:23:14.690Z,84.9135
2023-05-17T01:33:19.903Z,84.9664
2023-05-17T01:34:20.829Z,84.9748
2023-05-17T01:35:21.871Z,84.9845
2023-05-17T01:36:22.516Z,84.9949
2023-05-17T01:37:22.571Z,85.0105
2023-05-17T01:38:23.614Z,85.0195
2023-05-17T01:39:23.940Z,85.0092
2023-05-17T01:40:24.406Z,85.0163
2023-05-17T01:41:24.993Z,85.0261
2023-05-17T01:48:29.347Z,85.0334
2023-05-17T01:49:30.319Z,85.0194
2023-05-17T01:50:30.849Z,84.9998
2023-05-17T01:51:32.229Z,84.9683
2023-05-17T01:52:32.471Z,84.9516
2023-05-17T01:53:34.305Z,84.9397
2023-05-17T01:54:34.965Z,84.9372
2023-05-17T01:55:36.197Z,84.9416
2023-05-17T01:56:37.067Z,84.9525
2023-05-17T01:57:36.297Z,84.9490
2023-05-17T01:58:37.445Z,84.9174
2023-05-17T01:59:38.462Z,84.8882
2023-05-17T02:00:38.561Z,84.8659
2023-05-17T02:01:38.731Z,84.8485
2023-05-17T02:03:41.130Z,84.8297
2023-05-17T02:04:41.936Z,84.8119
2023-05-17T02:05:42.461Z,84.8050
2023-05-17T02:06:43.741Z,84.8042
2023-05-17T02:08:44.838Z,84.8049
2023-05-17T02:09:45.140Z,84.8285
2023-05-17T02:10:45.899Z,84.8503
2023-05-17T02:11:46.464Z,84.8770
2023-05-17T02:12:46.821Z,84.8942
2023-05-17T02:13:47.699Z,84.8979
2023-05-17T02:14:48.732Z,84.9155
2023-05-17T02:15:49.262Z,84.9166
2023-05-17T02:17:51.363Z,84.9189
2023-05-17T02:18:52.562Z,84.9343
2023-05-17T02:19:53.916Z,84.9550
2023-05-17T02:20:55.428Z,84.9666
2023-05-17T02:25:58.452Z,84.8631
2023-05-17T02:26:58.626Z,84.8403
2023-05-17T02:29:01.467Z,84.8115
2023-05-17T02:30:02.431Z,84.8070
2023-05-17T02:31:03.352Z,84.7990
2023-05-17T02:32:04.203Z,84.7960
2023-05-17T02:35:06.546Z,84.8046
2023-05-17T02:43:09.973Z,84.7184
2023-05-17T02:44:11.195Z,84.7109
2023-05-17T02:46:11.754Z,84.6924
2023-05-17T02:47:12.321Z,84.6585
2023-05-17T02:49:13.664Z,84.6171
2023-05-17T02:50:14.921Z,84.6118
2023-05-17T02:51:15.844Z,84.6146
2023-05-17T02:52:16.887Z,84.6359
2023-05-17T02:53:18.172Z,84.6603
2023-05-17T02:54:18.285Z,84.6349
2023-05-17T02:55:19.256Z,84.6163
2023-05-17T02:57:19.834Z,84.5736
2023-05-17T02:58:20.710Z,84.5741
2023-05-17T02:59:21.675Z,84.5804
2023-05-17T03:00:22.665Z,84.5683
2023-05-17T03:02:23.170Z,84.5450
2023-05-17T03:03:24.082Z,84.5637
2023-05-17T03:04:24.986Z,84.5749
2023-05-17T03:05:26.186Z,84.5796
2023-05-17T03:06:27.252Z,84.5642
2023-05-17T03:11:28.746Z,84.6521
2023-05-17T03:12:29.621Z,84.6484
2023-05-17T03:13:30.184Z,84.6490
2023-05-17T03:14:30.866Z,84.6468
2023-05-17T03:15:32.106Z,84.6246
2023-05-17T03:16:33.791Z,84.6262
2023-05-17T03:17:35.079Z,84.6534
2023-05-17T03:26:40.320Z,84.8252
2023-05-17T03:27:40.736Z,84.8477
2023-05-17T03:28:41.459Z,84.8536
2023-05-17T03:29:42.147Z,84.8417
2023-05-17T03:30:43.231Z,84.8245
2023-05-17T03:31:44.180Z,84.8073
2023-05-17T03:32:44.340Z,84.8090
2023-05-17T03:33:45.813Z,84.8272
2023-05-17T03:34:46.243Z,84.8539
2023-05-17T03:35:46.973Z,84.8692
2023-05-17T03:36:47.631Z,84.8823
2023-05-17T03:37:47.952Z,84.8918
2023-05-17T03:38:48.614Z,84.9007
2023-05-17T03:42:50.372Z,84.8993
2023-05-17T03:43:50.774Z,84.8688
2023-05-17T03:44:51.485Z,84.8459
2023-05-17T03:45:52.148Z,84.8284
2023-05-17T03:46:53.259Z,84.8214
2023-05-17T03:47:53.982Z,84.8200
2023-05-17T03:48:54.366Z,84.8145
2023-05-17T03:49:54.989Z,84.8026
2023-05-17T03:50:56.066Z,84.7762
2023-05-17T03:51:56.521Z,84.7684
2023-05-17T03:52:58.155Z,84.7865
2023-05-17T03:55:57.791Z,84.9157
2023-05-17T03:56:59.091Z,84.9480
2023-05-17T04:01:01.011Z,84.9635
2023-05-17T04:02:01.238Z,84.9431
2023-05-17T04:03:02.591Z,84.9195
2023-05-17T04:04:03.153Z,84.9197
2023-05-17T04:12:36.047Z,85.0008
2023-05-17T04:13:36.904Z,84.9928
2023-05-17T04:18:40.032Z,85.0286
2023-05-17T04:30:48.036Z,85.2484
2023-05-17T04:31:48.374Z,85.2505
2023-05-17T04:32:49.168Z,85.2469
2023-05-17T04:33:49.962Z,85.2476
2023-05-17T04:34:50.180Z,85.2465
2023-05-17T04:35:50.486Z,85.2288
2023-05-17T04:36:50.840Z,85.2056
2023-05-17T04:37:52.616Z,85.1640
2023-05-17T04:38:53.859Z,85.1297
2023-05-17T04:39:53.964Z,85.1281
2023-05-17T04:40:56.033Z,85.1347
2023-05-17T04:41:56.042Z,85.1408
2023-05-17T04:42:56.550Z,85.1441
2023-05-17T04:43:56.707Z,85.1750
2023-05-17T04:44:57.577Z,85.2316
2023-05-17T04:45:58.894Z,85.2990
2023-05-17T04:47:59.584Z,85.3772
2023-05-17T04:49:00.615Z,85.3929
2023-05-17T04:56:04.092Z,85.6209
2023-05-17T04:57:04.950Z,85.6572
2023-05-17T04:58:05.452Z,85.6853
2023-05-17T04:59:06.612Z,85.7222
2023-05-17T05:01:07.579Z,85.7596
2023-05-17T05:03:09.160Z,85.7801
2023-05-17T05:13:15.753Z,85.9948
2023-05-17T05:14:16.466Z,86.0134
2023-05-17T05:16:17.519Z,85.9558
2023-05-17T05:17:17.618Z,85.9179
2023-05-17T05:18:19.094Z,85.9009
2023-05-17T05:19:20.205Z,85.8848
2023-05-17T05:20:20.030Z,85.8709
2023-05-17T05:21:21.503Z,85.8865
2023-05-17T05:30:28.810Z,86.1179
2023-05-17T05:33:31.730Z,86.1655
2023-05-17T05:35:32.613Z,86.2473
2023-05-17T05:36:32.874Z,86.2800
2023-05-17T05:37:34.397Z,86.3018
2023-05-17T05:39:34.721Z,86.2647
2023-05-17T05:40:35.291Z,86.2204
2023-05-17T05:41:36.219Z,86.1847
2023-05-17T05:42:36.556Z,86.1591
2023-05-17T05:43:37.111Z,86.1403
2023-05-17T05:44:37.618Z,86.1213
2023-05-17T05:45:37.937Z,86.0927
2023-05-17T05:47:40.633Z,85.9880
2023-05-17T05:48:40.656Z,85.9327
2023-05-17T05:49:42.335Z,85.8844
2023-05-17T05:50:42.850Z,85.8498
2023-05-17T05:51:43.326Z,85.8263
2023-05-17T05:52:44.025Z,85.7997
2023-05-17T05:53:45.423Z,85.7533
2023-05-17T05:54:46.098Z,85.6820
2023-05-17T05:55:47.074Z,85.6137
2023-05-17T05:56:47.599Z,85.5387
2023-05-17T05:57:47.690Z,85.4605
2023-05-17T05:58:49.458Z,85.4025
2023-05-17T05:59:50.616Z,85.3585
2023-05-17T06:01:51.239Z,85.2854
2023-05-17T06:02:51.822Z,85.2498
2023-05-17T06:11:57.335Z,85.1960
2023-05-17T06:12:57.654Z,85.1927
2023-05-17T06:13:58.872Z,85.1718
2023-05-17T06:15:00.614Z,85.1421
2023-05-17T06:16:01.796Z,85.1091
2023-05-17T06:17:01.661Z,85.0783
2023-05-17T06:18:02.731Z,85.0477
2023-05-17T06:19:03.911Z,85.0401
2023-05-17T06:20:03.899Z,85.0372
2023-05-17T06:21:04.518Z,85.0277
2023-05-17T06:31:10.941Z,84.9046
2023-05-17T06:32:11.908Z,84.7502
2023-05-17T06:33:12.600Z,84.5540
2023-05-17T06:34:13.433Z,84.3712
2023-05-17T06:35:13.703Z,84.2154
2023-05-17T06:36:15.154Z,84.0920
2023-05-17T06:37:15.867Z,83.9762
2023-05-17T06:47:22.772Z,83.6163
2023-05-17T06:48:23.234Z,83.5266
2023-05-17T06:50:24.911Z,83.4946
2023-05-17T06:52:26.687Z,83.3508
2023-05-17T06:54:27.009Z,83.3761
2023-05-17T06:55:28.995Z,83.3920
2023-05-17T06:56:28.206Z,83.3687
2023-05-17T06:57:29.024Z,83.3521
2023-05-17T06:58:29.029Z,83.3432
2023-05-17T06:59:30.433Z,83.3491
2023-05-17T07:00:31.944Z,83.3227
2023-05-17T07:01:32.517Z,83.2796
2023-05-17T07:02:39.053Z,83.2838
2023-05-17T07:06:35.264Z,83.3524
2023-05-17T07:07:36.639Z,83.3331
2023-05-17T07:08:36.393Z,83.3276
2023-05-17T07:09:37.699Z,83.3162
2023-05-17T07:10:38.431Z,83.2058
2023-05-17T07:11:39.081Z,83.0665
2023-05-17T07:12:41.017Z,82.9591
2023-05-17T07:14:42.080Z,82.8400
2023-05-17T07:15:43.063Z,82.7979
2023-05-17T07:16:43.730Z,82.7818
2023-05-17T07:21:47.192Z,82.5480
2023-05-17T07:22:48.349Z,82.3399
2023-05-17T07:23:49.781Z,82.1818
2023-05-17T07:24:51.491Z,82.0848
2023-05-17T07:25:51.950Z,81.9912
2023-05-17T07:26:52.575Z,81.8966
2023-05-17T07:27:52.452Z,81.7920
2023-05-17T07:28:53.542Z,81.6676
2023-05-17T07:31:56.240Z,81.0870
2023-05-17T07:33:57.384Z,80.7918
2023-05-17T07:41:01.714Z,79.5251
2023-05-17T07:42:04.552Z,79.4399
2023-05-17T07:43:04.041Z,79.3859
2023-05-17T07:44:04.447Z,79.3405
2023-05-17T07:45:04.569Z,79.2802
2023-05-17T07:46:05.396Z,79.2601
2023-05-17T07:47:06.023Z,79.2437
2023-05-17T07:48:07.041Z,79.2253
2023-05-17T07:54:12.876Z,79.6133
2023-05-17T07:57:13.413Z,79.3787
2023-05-17T07:58:13.689Z,79.1712
2023-05-17T07:59:14.832Z,78.9837
2023-05-17T08:00:15.084Z,78.8788
2023-05-17T08:01:15.258Z,78.8686
2023-05-17T08:02:15.918Z,78.8981
2023-05-17T08:03:17.755Z,78.8911
2023-05-17T08:04:17.587Z,78.8166
2023-05-17T08:05:18.369Z,78.6923
2023-05-17T08:06:19.464Z,78.5447
2023-05-17T08:07:19.861Z,78.4034
2023-05-17T08:19:30.576Z,76.0136
2023-05-17T08:20:30.971Z,75.7457
2023-05-17T08:21:31.905Z,75.3828
2023-05-17T08:22:32.300Z,75.0973
2023-05-17T08:23:33.229Z,74.9456
2023-05-17T08:24:34.184Z,74.9037
2023-05-17T08:26:36.431Z,75.0054
2023-05-17T08:27:36.939Z,75.1973
2023-05-17T08:28:38.128Z,75.4556
2023-05-17T08:29:39.781Z,75.6056
2023-05-17T08:30:40.263Z,75.4973
2023-05-17T08:31:41.247Z,75.4541
2023-05-17T08:32:41.726Z,75.5777
2023-05-17T08:33:42.272Z,75.6179
2023-05-17T08:34:42.659Z,75.5606
2023-05-17T08:35:43.062Z,75.5921
2023-05-17T08:36:43.726Z,75.6254
2023-05-17T08:38:44.886Z,75.7630
2023-05-17T08:39:45.189Z,75.8583
2023-05-17T08:40:45.521Z,75.8743
2023-05-17T08:41:45.670Z,75.8377
2023-05-17T08:42:46.569Z,75.7716
2023-05-17T08:43:47.484Z,75.7694
2023-05-17T08:47:48.333Z,76.3229
2023-05-17T08:48:49.315Z,76.2930
2023-05-17T08:49:50.435Z,76.4625
2023-05-17T08:50:51.506Z,76.6640
2023-05-17T08:51:52.733Z,76.7502
2023-05-17T08:52:53.113Z,76.7193
2023-05-17T08:53:54.599Z,76.5108
2023-05-17T08:54:54.636Z,76.3758
2023-05-17T08:56:57.232Z,76.2885
2023-05-17T09:00:00.331Z,76.0875
2023-05-17T09:01:00.536Z,75.8726
2023-05-17T09:02:01.886Z,75.7831
2023-05-17T09:03:03.054Z,75.7794
2023-05-17T09:04:03.681Z,75.8041
2023-05-17T09:05:03.982Z,75.8661
2023-05-17T09:06:04.801Z,75.9475
2023-05-17T09:08:05.485Z,76.0784
2023-05-17T09:09:06.189Z,76.1324
2023-05-17T09:10:06.626Z,76.1063
2023-05-17T09:11:07.157Z,76.1988
2023-05-17T09:12:08.365Z,76.2105
2023-05-17T09:13:08.749Z,76.0958
2023-05-17T09:14:09.870Z,75.9560
2023-05-17T09:15:10.229Z,75.9768
2023-05-17T09:16:11.626Z,76.0351
2023-05-17T09:17:12.551Z,76.1434
2023-05-17T09:18:13.548Z,76.3894
2023-05-17T09:20:13.882Z,76.9907
2023-05-17T09:21:14.449Z,77.0686
2023-05-17T09:22:16.311Z,77.0578
2023-05-17T09:23:17.829Z,77.1156
2023-05-17T09:24:18.991Z,77.3157
2023-05-17T09:25:19.513Z,77.5366
2023-05-17T09:26:21.132Z,77.6394
2023-05-17T09:27:21.549Z,77.7350
2023-05-17T09:28:22.277Z,77.8654
2023-05-17T09:29:24.024Z,78.0153
2023-05-17T09:30:25.311Z,78.1100
2023-05-17T09:31:26.079Z,78.2266
2023-05-17T09:32:26.842Z,78.2185
2023-05-17T09:33:27.819Z,78.1020
2023-05-17T09:34:28.422Z,78.0750
2023-05-17T09:35:30.010Z,78.1125
2023-05-17T09:36:30.420Z,78.1589
2023-05-17T09:37:31.481Z,78.2276
2023-05-17T09:38:32.289Z,78.3614
2023-05-17T09:39:33.129Z,78.4659
2023-05-17T09:41:34.680Z,78.5674
2023-05-17T09:42:34.729Z,78.6373
2023-05-17T09:44:37.909Z,78.6248
2023-05-17T09:54:44.116Z,78.1555
2023-05-17T09:55:44.801Z,78.2279
2023-05-17T09:56:45.722Z,78.3900
2023-05-17T09:57:47.423Z,78.6292
2023-05-17T09:58:48.280Z,78.9123
2023-05-17T10:00:49.461Z,79.2590
2023-05-17T10:01:50.758Z,79.3205
2023-05-17T10:02:51.581Z,79.1421
2023-05-17T10:04:54.228Z,78.6586
2023-05-17T10:05:55.670Z,78.3438
2023-05-17T10:09:57.364Z,77.0705
2023-05-17T10:10:57.485Z,76.7078
2023-05-17T10:16:01.241Z,75.3273
2023-05-17T10:17:02.032Z,74.6877
2023-05-17T10:18:02.694Z,73.8648
2023-05-17T10:19:03.131Z,73.1274
2023-05-17T10:20:03.468Z,72.3160
2023-05-17T10:21:05.175Z,71.5255
2023-05-17T10:22:21.863Z,71.0665
2023-05-17T10:23:05.393Z,70.9142
2023-05-17T10:33:11.254Z,70.0250
2023-05-17T10:34:12.436Z,70.1430
2023-05-17T10:35:14.693Z,70.3111
2023-05-17T10:36:14.803Z,70.5884
2023-05-17T10:37:16.179Z,70.7969
2023-05-17T10:38:17.093Z,71.0391
2023-05-17T10:39:17.368Z,71.2631
2023-05-17T10:40:18.695Z,71.1669
2023-05-17T10:41:19.484Z,70.8665
2023-05-17T10:42:20.597Z,70.5155
2023-05-17T10:44:21.912Z,69.5793
2023-05-17T10:45:22.167Z,68.8188
2023-05-17T10:46:23.048Z,68.3952
2023-05-17T10:48:26.399Z,67.8594
2023-05-17T10:49:26.528Z,67.6545
2023-05-17T10:50:29.091Z,67.4534
2023-05-17T10:51:30.161Z,67.4092
2023-05-17T10:52:30.535Z,67.4642
2023-05-17T10:53:31.088Z,67.4996
2023-05-17T10:54:33.020Z,67.5576
2023-05-17T10:55:34.630Z,67.3278
2023-05-17T10:56:34.754Z,67.2702
2023-05-17T10:57:49.259Z,67.2700
2023-05-17T10:58:37.308Z,67.2819
2023-05-17T10:59:38.235Z,67.3922
2023-05-17T11:07:43.765Z,67.1608
2023-05-17T11:08:43.984Z,67.0702
2023-05-17T11:09:45.800Z,67.0367
2023-05-17T11:10:46.393Z,66.7953
2023-05-17T11:18:50.196Z,63.7828
2023-05-17T11:19:51.363Z,63.3186
2023-05-17T11:20:52.573Z,62.7802
2023-05-17T11:21:53.260Z,62.4210
2023-05-17T11:22:53.505Z,61.9892
2023-05-17T11:23:53.920Z,61.4340
2023-05-17T11:24:54.290Z,60.8392
2023-05-17T11:25:55.104Z,60.0788
2023-05-17T11:26:55.403Z,59.4994
2023-05-17T11:27:55.807Z,58.9359
2023-05-17T11:28:56.317Z,58.5626
2023-05-17T11:29:56.822Z,57.9805
2023-05-17T11:30:57.066Z,57.9742
2023-05-17T11:31:57.460Z,58.5826
2023-05-17T11:32:58.116Z,59.3492
2023-05-17T11:33:58.362Z,60.4148
2023-05-17T11:34:58.769Z,61.3019
2023-05-17T11:35:59.430Z,62.0854
2023-05-17T11:36:59.855Z,63.0433
2023-05-17T11:38:00.262Z,64.0027
2023-05-17T11:39:08.152Z,64.7973
2023-05-17T11:40:01.906Z,65.4843
2023-05-17T11:41:03.523Z,66.0250
2023-05-17T11:42:03.308Z,66.4132
2023-05-17T11:43:03.679Z,66.7781
2023-05-17T11:44:04.069Z,67.1001
2023-05-17T11:45:04.581Z,67.2972
2023-05-17T11:46:05.182Z,67.5238
2023-05-17T11:47:05.662Z,67.8198
2023-05-17T11:48:06.265Z,68.1283
2023-05-17T11:49:06.902Z,68.3814
2023-05-17T11:50:07.944Z,68.5479
2023-05-17T11:51:08.753Z,68.7233
2023-05-17T11:52:09.290Z,68.8423
2023-05-17T11:53:09.922Z,68.7762
2023-05-17T11:54:10.566Z,68.7939
2023-05-17T11:55:10.964Z,68.8564
2023-05-17T11:56:11.368Z,68.5430
2023-05-17T11:57:11.521Z,68.4318
2023-05-17T11:58:12.104Z,68.4874
2023-05-17T11:59:12.473Z,68.5498
2023-05-17T12:00:12.878Z,68.5768
2023-05-17T12:01:13.535Z,68.3392
2023-05-17T12:02:13.933Z,68.0643
2023-05-17T12:03:14.482Z,67.5706
2023-05-17T12:04:15.103Z,67.2441
2023-05-17T12:05:15.985Z,67.0412
2023-05-17T12:06:16.491Z,67.0979
2023-05-17T12:07:16.703Z,67.1910
2023-05-17T12:08:17.076Z,67.5162
2023-05-17T12:09:17.344Z,67.7616
2023-05-17T12:10:17.906Z,68.0090
2023-05-17T12:11:18.145Z,68.2297
2023-05-17T12:12:18.577Z,68.4157
2023-05-17T12:13:18.902Z,68.5390
2023-05-17T12:14:19.475Z,68.6461
2023-05-17T12:15:19.910Z,68.7049
2023-05-17T12:16:20.320Z,68.6455
2023-05-17T12:17:20.592Z,68.4702
2023-05-17T12:18:21.244Z,67.6927
2023-05-17T12:19:22.251Z,66.8355
2023-05-17T12:20:23.231Z,65.5029
2023-05-17T12:21:24.273Z,64.1894
2023-05-17T12:22:24.802Z,63.5444
2023-05-17T12:23:25.083Z,63.2866
2023-05-17T12:24:25.704Z,63.2919
2023-05-17T12:25:26.252Z,63.5698
2023-05-17T12:26:26.622Z,63.9151
2023-05-17T12:27:26.868Z,64.3260
2023-05-17T12:28:27.305Z,64.7994
2023-05-17T12:29:27.717Z,65.1241
2023-05-17T12:30:28.368Z,65.3368
2023-05-17T12:31:29.174Z,65.2526
2023-05-17T12:32:29.471Z,64.7046
2023-05-17T12:33:30.051Z,63.3088
2023-05-17T12:34:30.714Z,61.3724
2023-05-17T12:35:31.184Z,60.4937
2023-05-17T12:36:31.450Z,59.5848
2023-05-17T12:37:31.811Z,59.0530
2023-05-17T12:38:32.220Z,59.0887
2023-05-17T12:39:32.610Z,59.2705
2023-05-17T12:40:32.843Z,59.3668
2023-05-17T12:41:33.363Z,59.4528
2023-05-17T12:42:33.810Z,59.4215
2023-05-17T12:43:34.135Z,58.9907
2023-05-17T12:44:35.410Z,58.4798
2023-05-17T12:45:35.858Z,58.1988
2023-05-17T12:46:36.307Z,58.2701
2023-05-17T12:47:36.724Z,58.7013
2023-05-17T12:48:37.023Z,59.2819
2023-05-17T12:49:37.347Z,59.4478
2023-05-17T12:50:37.889Z,59.7718
2023-05-17T12:51:39.056Z,60.5553
2023-05-17T12:52:39.281Z,61.3020
2023-05-17T12:53:39.720Z,61.8986
2023-05-17T12:54:40.257Z,62.0737
2023-05-17T12:55:40.842Z,62.1142
2023-05-17T12:56:41.153Z,62.3012
2023-05-17T12:57:42.180Z,62.5976
2023-05-17T12:58:42.585Z,62.5603
2023-05-17T12:59:43.061Z,61.9451
2023-05-17T13:00:43.363Z,60.9630
2023-05-17T13:01:44.099Z,59.7966
2023-05-17T13:02:44.877Z,58.6199
2023-05-17T13:03:45.899Z,57.3823
2023-05-17T13:04:46.387Z,55.8770
2023-05-17T13:05:46.786Z,54.7815
2023-05-17T13:06:47.260Z,54.7933
2023-05-17T13:07:47.800Z,55.2161
2023-05-17T13:08:48.084Z,55.8606
2023-05-17T13:09:48.417Z,56.4102
2023-05-17T13:10:49.500Z,56.9260
2023-05-17T13:11:49.804Z,57.6270
2023-05-17T13:12:50.421Z,58.3638
2023-05-17T13:13:50.865Z,59.1075
2023-05-17T13:14:51.273Z,59.5905
2023-05-17T13:15:51.754Z,59.7956
2023-05-17T13:16:52.166Z,60.0655
2023-05-17T13:17:52.805Z,60.3858
2023-05-17T13:18:53.607Z,59.9379
2023-05-17T13:19:54.579Z,59.8033
2023-05-17T13:20:54.996Z,59.9840
2023-05-17T13:21:55.433Z,60.2337
2023-05-17T13:22:55.789Z,60.1422
2023-05-17T13:23:56.560Z,60.2850
2023-05-17T13:24:57.605Z,59.7206
2023-05-17T13:25:58.202Z,60.0004
2023-05-17T13:26:58.782Z,60.4117
2023-05-17T13:27:59.244Z,60.7215
2023-05-17T13:28:59.515Z,60.6310
2023-05-17T13:30:00.088Z,60.2605
2023-05-17T13:31:00.764Z,59.5797
2023-05-17T13:32:01.271Z,59.1418
2023-05-17T13:33:01.823Z,59.2930
2023-05-17T13:34:03.031Z,59.4841
2023-05-17T13:35:03.540Z,58.9063
2023-05-17T13:36:03.889Z,58.1521
2023-05-17T13:37:04.098Z,57.7651
2023-05-17T13:38:04.545Z,57.0983
2023-05-17T13:39:04.912Z,56.3973
2023-05-17T13:40:05.258Z,56.9401
2023-05-17T13:41:05.507Z,57.5080
2023-05-17T13:42:05.929Z,58.2037
2023-05-17T13:43:07.950Z,59.1241
2023-05-17T13:44:07.245Z,60.0965
2023-05-17T13:45:07.380Z,60.8625
2023-05-17T13:46:07.903Z,61.4935
2023-05-17T13:47:08.433Z,62.0922
2023-05-17T13:48:09.252Z,62.5651
2023-05-17T13:49:10.010Z,62.6644
2023-05-17T13:50:10.442Z,63.1060
2023-05-17T13:51:11.189Z,63.4665
2023-05-17T13:52:11.697Z,63.6714
2023-05-17T13:53:11.897Z,63.8323
2023-05-17T13:54:12.447Z,63.9293
2023-05-17T13:55:12.995Z,63.9758
2023-05-17T13:56:13.498Z,63.8400
2023-05-17T13:57:13.732Z,63.5604
2023-05-17T13:58:14.177Z,63.4152
2023-05-17T13:59:14.554Z,63.1700
2023-05-17T14:00:15.261Z,63.0965
2023-05-17T14:01:15.346Z,63.2230
2023-05-17T14:02:15.807Z,63.4428
2023-05-17T14:03:16.443Z,63.6894
2023-05-17T14:04:17.620Z,63.7268
2023-05-17T14:05:17.857Z,64.1407
2023-05-17T14:06:18.280Z,64.6629
2023-05-17T14:07:19.182Z,65.0627
2023-05-17T14:08:19.865Z,65.4258
2023-05-17T14:09:20.174Z,65.7990
2023-05-17T14:10:20.854Z,66.1124
2023-05-17T14:11:21.407Z,66.3916
2023-05-17T14:12:22.069Z,66.5957
2023-05-17T14:13:22.394Z,66.7842
2023-05-17T14:14:22.825Z,67.0842
2023-05-17T14:15:23.250Z,67.4785
2023-05-17T14:16:23.949Z,67.8440
2023-05-17T14:17:24.312Z,68.1435
2023-05-17T14:18:24.852Z,68.4358
2023-05-17T14:19:25.756Z,68.7165
2023-05-17T14:20:26.767Z,68.9241
2023-05-17T14:21:27.015Z,69.0688
2023-05-17T14:22:27.392Z,69.1792
2023-05-17T14:23:27.854Z,69.2770
2023-05-17T14:24:28.315Z,69.3689
2023-05-17T14:25:28.514Z,69.4374
2023-05-17T14:26:28.871Z,69.4637
2023-05-17T14:27:29.445Z,69.4789
2023-05-17T14:28:29.846Z,69.1633
2023-05-17T14:29:30.495Z,68.4050
2023-05-17T14:30:31.239Z,67.6287
2023-05-17T14:31:32.111Z,67.0839
2023-05-17T14:32:32.668Z,66.7397
2023-05-17T14:33:33.129Z,66.5917
2023-05-17T14:34:33.717Z,66.5393
2023-05-17T14:35:34.183Z,66.7537
2023-05-17T14:36:35.202Z,67.1005
2023-05-17T14:37:35.872Z,67.4421
2023-05-17T14:38:36.168Z,67.9421
2023-05-17T14:39:36.894Z,68.3277
2023-05-17T14:40:37.591Z,68.6885
2023-05-17T14:41:38.331Z,68.9740
2023-05-17T14:42:38.723Z,69.0267
2023-05-17T14:43:39.230Z,69.0757
2023-05-17T14:44:39.738Z,69.2521
2023-05-17T14:45:40.334Z,69.3804
2023-05-17T14:46:40.690Z,69.4855
2023-05-17T14:47:41.178Z,69.5865
2023-05-17T14:48:41.665Z,69.6026
2023-05-17T14:49:42.118Z,69.5472
2023-05-17T14:50:42.464Z,69.5390
2023-05-17T14:51:43.138Z,69.5704
2023-05-17T14:52:43.676Z,69.5980
2023-05-17T14:53:44.358Z,69.5038
2023-05-17T14:54:44.708Z,69.3783
2023-05-17T14:55:45.230Z,69.0632
2023-05-17T14:56:45.705Z,68.5259
2023-05-17T14:57:46.245Z,67.9088
2023-05-17T14:58:46.558Z,67.5077
2023-05-17T14:59:47.038Z,67.1050
2023-05-17T15:00:48.519Z,66.5196
2023-05-17T15:01:48.173Z,66.5576
2023-05-17T15:02:48.755Z,66.7576
2023-05-17T15:03:49.884Z,67.0703
2023-05-17T15:04:51.100Z,67.4159
2023-05-17T15:05:51.030Z,67.8025
2023-05-17T15:06:51.493Z,68.2345
2023-05-17T15:07:51.969Z,68.6849
2023-05-17T15:08:52.430Z,69.1329
2023-05-17T15:09:52.951Z,69.6010
2023-05-17T15:10:53.340Z,70.0251
2023-05-17T15:11:53.932Z,70.4060
2023-05-17T15:12:54.528Z,70.7441
2023-05-17T15:13:54.808Z,70.9889
2023-05-17T15:14:55.297Z,71.1494
2023-05-17T15:15:55.872Z,71.3311
2023-05-17T15:16:56.476Z,71.5592
2023-05-17T15:17:56.809Z,71.7452
2023-05-17T15:18:58.110Z,71.9057
2023-05-17T15:19:58.060Z,72.0179
2023-05-17T15:20:58.779Z,72.0557
2023-05-17T15:21:58.992Z,72.0470
2023-05-17T15:22:59.435Z,72.0765
2023-05-17T15:24:00.050Z,72.1346
2023-05-17T15:25:00.203Z,72.1696
2023-05-17T15:26:00.477Z,72.1337
2023-05-17T15:27:01.183Z,72.0616
2023-05-17T15:28:01.728Z,71.9581
2023-05-17T15:29:02.179Z,71.8061
2023-05-17T15:30:02.556Z,71.6432
2023-05-17T15:31:03.095Z,71.4977
2023-05-17T15:32:03.717Z,71.3471
2023-05-17T15:33:04.447Z,71.2071
2023-05-17T15:34:05.055Z,71.0696
2023-05-17T15:35:05.435Z,70.9300
2023-05-17T15:36:05.912Z,70.7722
2023-05-17T15:37:06.427Z,70.5502
2023-05-17T15:38:06.729Z,70.3450
2023-05-17T15:39:07.138Z,70.1108
2023-05-17T15:40:07.639Z,70.0117
2023-05-17T15:41:08.102Z,69.9747
2023-05-17T15:42:08.312Z,69.9439
2023-05-17T15:43:09.062Z,69.7878
2023-05-17T15:44:09.553Z,69.4791
2023-05-17T15:45:10.080Z,69.3624
2023-05-17T15:46:10.351Z,68.9911
2023-05-17T15:47:10.828Z,68.6558
2023-05-17T15:48:11.694Z,68.6654
2023-05-17T15:49:12.822Z,68.5867
2023-05-17T15:50:13.223Z,68.7735
2023-05-17T15:51:13.733Z,69.0323
2023-05-17T15:52:14.311Z,69.2534
2023-05-17T15:53:14.871Z,69.4331
2023-05-17T15:54:16.044Z,69.5589
2023-05-17T15:55:16.469Z,69.6205
2023-05-17T15:56:16.932Z,69.7203
2023-05-17T15:57:17.690Z,69.8398
2023-05-17T15:58:18.152Z,69.9363
2023-05-17T15:59:18.944Z,69.9878
2023-05-17T16:00:19.475Z,69.8023
2023-05-17T16:01:20.221Z,69.4083
2023-05-17T16:02:20.597Z,68.8518
2023-05-17T16:03:21.263Z,68.0977
2023-05-17T16:04:21.947Z,67.2848
2023-05-17T16:05:22.542Z,66.3015
2023-05-17T16:06:22.794Z,65.0698
2023-05-17T16:07:23.378Z,64.3743
2023-05-17T16:08:23.847Z,64.1061
2023-05-17T16:09:24.331Z,63.6249
2023-05-17T16:10:24.595Z,62.8927
2023-05-17T16:11:25.070Z,62.5395
2023-05-17T16:12:25.536Z,62.5255
2023-05-17T16:13:26.142Z,62.7311
2023-05-17T16:14:26.490Z,62.9860
2023-05-17T16:15:26.936Z,63.2889
2023-05-17T16:16:27.498Z,63.5010
2023-05-17T16:17:28.012Z,63.8710
2023-05-17T16:18:28.096Z,64.1228
2023-05-17T16:19:28.973Z,64.1277
2023-05-17T16:20:29.838Z,64.5408
2023-05-17T16:21:30.216Z,65.0736
2023-05-17T16:22:30.726Z,65.5456
2023-05-17T16:23:31.362Z,65.9495
2023-05-17T16:24:32.418Z,66.0052
2023-05-17T16:25:32.785Z,66.0429
2023-05-17T16:26:33.333Z,66.1967
2023-05-17T16:27:33.829Z,66.3605
2023-05-17T16:28:34.410Z,66.5141
2023-05-17T16:29:34.686Z,66.5844
2023-05-17T16:30:35.230Z,66.5587
2023-05-17T16:31:35.838Z,66.4699
2023-05-17T16:32:36.429Z,66.3558
2023-05-17T16:33:37.566Z,66.2552
2023-05-17T16:34:38.056Z,66.1069
2023-05-17T16:35:38.717Z,65.8386
2023-05-17T16:36:39.289Z,65.5403
2023-05-17T16:37:39.692Z,65.1977
2023-05-17T16:38:40.235Z,64.8694
2023-05-17T16:39:40.712Z,64.7139